Clayhatchee, Alabama
Current Conditions -  °F | °C
As of 9:58 PM on Friday 24 Oct 2014 (Local Time) from KOZR Reporting Station
Clear Clear  
Wind Chill: 12°   Ceiling: Unl
Heat Index: 12°   Visibility: 10mi
Dew Point:   Wind: 2mph
Humidity: 81%   Direction: 310°NW
Pressure: 30.04"   Gusts: NA
Location:  31.2347°N, 85.7586°W
Report Text: KOZR 250258Z AUTO 31002KT 10SM CLR 12/09 A3004 RMK AO2 SLP174 T01240092 52012
Loading
Personal Weather Stations






























Interactive Weather Map
Tropical Storm Tracking
New forecast layout! Learn more

10-Day Weather Forecast

Advertisements
Track Severe Weather on mobile